Time;durP1;ratioP1;P1;durP2;ratioP2;P2;SDS_P1;SDS_P2;PMS_P1;PMS_P2;Temp;Humidity;BMP_temperature;BMP_pressure;BME280_temperature;BME280_humidity;BME280_pressure;Samples;Min_cycle;Max_cycle;Signal;HPM_P1;HPM_P2
2023/04/18 00:01:38;;;;;;;4.25;3.85;;;22.70;74.70;;;;;;6259190;28;89055;-71
2023/04/18 00:04:44;;;;;;;4.20;3.80;;;22.70;74.70;;;;;;6257080;28;88078;-71
2023/04/18 00:07:46;;;;;;;4.25;3.80;;;22.70;74.70;;;;;;6256345;28;89930;-71
2023/04/18 00:10:49;;;;;;;4.25;3.80;;;22.70;74.70;;;;;;6258210;28;89136;-71
2023/04/18 00:13:51;;;;;;;4.65;3.83;;;22.70;74.70;;;;;;6255677;27;89251;-71
2023/04/18 00:16:53;;;;;;;4.68;3.97;;;22.70;74.70;;;;;;6255004;28;88976;-71
2023/04/18 00:19:57;;;;;;;4.78;3.70;;;22.70;74.70;;;;;;6256991;28;89070;-71
2023/04/18 00:23:00;;;;;;;3.95;3.65;;;22.70;74.70;;;;;;6257729;28;89185;-71
2023/04/18 00:26:02;;;;;;;3.83;3.42;;;22.70;74.70;;;;;;6258131;28;89124;-72
2023/04/18 00:29:05;;;;;;;4.00;3.60;;;22.70;74.70;;;;;;6253394;28;87903;-71
2023/04/18 00:32:07;;;;;;;4.40;3.72;;;22.70;74.70;;;;;;6235795;28;89113;-71
2023/04/18 00:35:10;;;;;;;4.20;3.45;;;22.70;74.70;;;;;;6249574;28;89168;-71
2023/04/18 00:38:12;;;;;;;3.90;3.55;;;22.70;74.60;;;;;;6255795;28;90010;-70
2023/04/18 00:41:15;;;;;;;4.00;3.60;;;22.70;74.60;;;;;;6255727;28;89139;-71
2023/04/18 00:44:17;;;;;;;3.67;3.38;;;22.70;74.60;;;;;;6253941;28;89188;-71
2023/04/18 00:47:19;;;;;;;3.80;3.50;;;22.60;74.60;;;;;;6246251;28;89098;-70
2023/04/18 00:50:23;;;;;;;3.83;3.40;;;22.60;74.70;;;;;;6249639;28;89156;-71
2023/04/18 00:53:25;;;;;;;4.25;3.40;;;22.60;74.70;;;;;;6255435;28;89022;-71
2023/04/18 00:56:28;;;;;;;3.67;3.38;;;22.60;74.70;;;;;;6252165;28;87915;-71
2023/04/18 00:59:32;;;;;;;4.38;3.58;;;22.60;74.70;;;;;;6256880;28;88327;-71
2023/04/18 01:02:34;;;;;;;3.60;3.30;;;22.60;74.70;;;;;;6245039;28;89091;-71
2023/04/18 01:05:38;;;;;;;3.90;3.60;;;22.60;74.80;;;;;;6251145;28;89019;-71
2023/04/18 01:08:41;;;;;;;4.05;3.45;;;22.60;74.70;;;;;;6256040;28;89851;-71
2023/04/18 01:11:43;;;;;;;3.83;3.53;;;22.60;74.70;;;;;;6246508;28;89143;-71
2023/04/18 01:14:45;;;;;;;4.15;3.75;;;22.50;74.70;;;;;;6253911;28;89056;-71
2023/04/18 01:17:47;;;;;;;4.18;3.80;;;22.60;74.70;;;;;;6254831;28;89069;-70
2023/04/18 01:20:53;;;;;;;4.10;3.80;;;22.50;74.70;;;;;;6246421;28;89123;-71
2023/04/18 01:23:56;;;;;;;4.25;3.85;;;22.50;74.60;;;;;;6254263;28;89521;-71
2023/04/18 01:27:01;;;;;;;4.53;4.13;;;22.50;74.70;;;;;;6254990;28;89130;-71
2023/04/18 01:30:04;;;;;;;4.45;4.00;;;22.60;74.70;;;;;;6244728;28;88496;-71
2023/04/18 01:33:06;;;;;;;4.35;3.95;;;22.60;74.60;;;;;;6247892;28;88979;-71
2023/04/18 01:36:08;;;;;;;4.30;3.90;;;22.60;74.60;;;;;;6248388;28;89125;-70
2023/04/18 01:39:11;;;;;;;4.70;4.20;;;22.60;74.60;;;;;;6243343;28;90081;-71
2023/04/18 01:42:14;;;;;;;4.68;4.28;;;22.50;74.60;;;;;;6255639;28;89307;-71
2023/04/18 01:45:17;;;;;;;5.07;4.57;;;22.50;74.60;;;;;;6256166;28;89082;-71
2023/04/18 01:48:19;;;;;;;4.95;4.32;;;22.50;74.60;;;;;;6253634;28;89069;-71
2023/04/18 01:51:21;;;;;;;4.68;4.18;;;22.50;74.70;;;;;;6246424;28;89056;-71
2023/04/18 01:54:23;;;;;;;4.43;4.03;;;22.50;74.70;;;;;;6236049;28;89082;-71
2023/04/18 01:57:26;;;;;;;4.63;4.22;;;22.50;74.70;;;;;;6235205;28;87573;-71
2023/04/18 02:00:28;;;;;;;4.65;4.25;;;22.50;74.70;;;;;;6254201;28;88463;-71
2023/04/18 02:03:30;;;;;;;4.68;4.28;;;22.50;74.70;;;;;;6245871;28;89085;-71
2023/04/18 02:06:32;;;;;;;4.97;4.47;;;22.50;74.70;;;;;;6249384;27;89046;-71
2023/04/18 02:09:34;;;;;;;4.78;4.38;;;22.50;74.70;;;;;;6240112;28;89932;-71
2023/04/18 02:12:38;;;;;;;4.68;4.22;;;22.50;74.70;;;;;;6243055;28;88964;-71
2023/04/18 02:15:40;;;;;;;4.80;4.40;;;22.50;74.70;;;;;;6249225;28;88205;-71
2023/04/18 02:18:43;;;;;;;4.72;4.32;;;22.50;74.70;;;;;;6243217;28;89052;-71
2023/04/18 02:21:45;;;;;;;5.03;4.63;;;22.50;74.70;;;;;;6248044;28;88042;-71
2023/04/18 02:24:47;;;;;;;5.50;4.93;;;22.50;74.60;;;;;;6247569;28;89088;-72
2023/04/18 02:27:51;;;;;;;4.88;4.47;;;22.50;74.50;;;;;;6248142;28;87986;-71
2023/04/18 02:30:53;;;;;;;5.30;4.80;;;22.50;74.60;;;;;;6256012;28;88507;-71
2023/04/18 02:33:55;;;;;;;5.40;4.90;;;22.40;74.50;;;;;;6255690;28;89212;-72
2023/04/18 02:36:57;;;;;;;4.93;4.53;;;22.50;74.60;;;;;;6255204;28;89512;-72
2023/04/18 02:39:58;;;;;;;5.47;4.97;;;22.40;74.60;;;;;;6243573;27;90169;-71
2023/04/18 02:43:02;;;;;;;5.30;4.80;;;22.40;74.60;;;;;;6245307;28;89161;-71
2023/04/18 02:46:04;;;;;;;5.60;5.10;;;22.40;74.60;;;;;;6253156;28;88350;-71
2023/04/18 02:49:06;;;;;;;5.38;4.90;;;22.40;74.70;;;;;;6254767;28;89371;-71
2023/04/18 02:52:08;;;;;;;5.30;4.90;;;22.30;74.50;;;;;;6253029;28;89014;-71
2023/04/18 02:55:10;;;;;;;5.85;5.28;;;22.40;74.70;;;;;;6250544;28;87975;-71
2023/04/18 02:58:14;;;;;;;5.70;5.20;;;22.40;74.70;;;;;;6243737;28;89085;-72
2023/04/18 03:01:18;;;;;;;5.70;5.20;;;22.40;74.70;;;;;;6254657;28;88395;-71
2023/04/18 03:04:20;;;;;;;5.38;4.88;;;22.30;74.60;;;;;;6255314;28;89111;-71
2023/04/18 03:07:22;;;;;;;5.05;4.57;;;22.40;74.70;;;;;;6254885;28;88756;-71
2023/04/18 03:10:24;;;;;;;5.65;5.15;;;22.40;74.70;;;;;;6245334;28;90516;-72
2023/04/18 03:13:27;;;;;;;5.75;5.25;;;22.40;74.70;;;;;;6251039;28;89493;-71
2023/04/18 03:16:29;;;;;;;6.07;5.47;;;22.40;74.60;;;;;;6250119;28;89215;-71
2023/04/18 03:19:31;;;;;;;5.60;5.10;;;22.40;74.50;;;;;;6250554;28;89176;-71
2023/04/18 03:22:33;;;;;;;6.13;5.60;;;22.40;74.50;;;;;;6257864;28;89782;-71
2023/04/18 03:25:36;;;;;;;5.57;5.07;;;22.40;74.50;;;;;;6249548;28;89075;-70
2023/04/18 03:28:39;;;;;;;5.95;5.45;;;22.40;74.60;;;;;;6258454;28;89577;-71
2023/04/18 03:31:41;;;;;;;5.65;5.15;;;22.30;74.50;;;;;;6258691;27;87104;-71
2023/04/18 03:34:43;;;;;;;5.60;5.10;;;22.30;74.50;;;;;;6259430;28;89043;-71
2023/04/18 03:37:45;;;;;;;5.78;5.28;;;22.30;74.50;;;;;;6252266;28;89019;-70
2023/04/18 03:40:47;;;;;;;5.80;5.30;;;22.30;74.50;;;;;;6251545;28;90544;-71
2023/04/18 03:43:51;;;;;;;5.40;4.90;;;22.30;74.50;;;;;;6256996;28;89160;-71
2023/04/18 03:46:54;;;;;;;6.28;5.68;;;22.30;74.50;;;;;;6258071;28;89178;-71
2023/04/18 03:49:56;;;;;;;5.80;5.30;;;22.30;74.50;;;;;;6256457;28;89065;-71
2023/04/18 03:52:58;;;;;;;5.30;4.80;;;22.30;75.40;;;;;;6257810;28;88994;-71
2023/04/18 03:56:00;;;;;;;5.35;4.85;;;22.30;74.50;;;;;;6247843;28;90122;-71
2023/04/18 03:59:04;;;;;;;5.38;4.88;;;22.40;74.60;;;;;;6256617;28;89130;-71
2023/04/18 04:02:06;;;;;;;5.70;5.20;;;22.40;74.50;;;;;;6257619;27;88531;-71
2023/04/18 04:05:08;;;;;;;5.70;5.20;;;22.40;74.50;;;;;;6257747;28;89032;-72
2023/04/18 04:08:10;;;;;;;6.20;5.60;;;22.40;74.90;;;;;;6258627;27;88735;-70
2023/04/18 04:11:12;;;;;;;5.55;5.05;;;22.50;75.90;;;;;;6247425;27;90020;-70
2023/04/18 04:14:15;;;;;;;5.65;5.15;;;22.50;75.70;;;;;;6253686;27;89090;-70
2023/04/18 04:17:17;;;;;;;5.95;5.35;;;22.50;75.20;;;;;;6246026;28;89093;-70
2023/04/18 04:20:24;;;;;;;6.00;5.40;;;22.50;75.20;;;;;;6254727;27;89086;-71
2023/04/18 04:23:26;;;;;;;5.93;5.32;;;22.50;75.50;;;;;;6256266;27;89131;-69
2023/04/18 04:26:29;;;;;;;5.68;5.13;;;22.60;75.60;;;;;;6243928;27;89042;-70
2023/04/18 04:29:34;;;;;;;6.03;5.43;;;22.60;75.60;;;;;;6252886;27;87991;-70
2023/04/18 04:32:37;;;;;;;6.00;5.40;;;22.60;75.80;;;;;;6252282;27;87495;-70
2023/04/18 04:35:40;;;;;;;7.00;6.10;;;22.60;75.70;;;;;;6257011;27;89101;-69
2023/04/18 04:38:43;;;;;;;6.50;5.65;;;22.60;75.40;;;;;;6247152;27;89458;-70
2023/04/18 04:41:46;;;;;;;7.03;5.72;;;22.60;75.10;;;;;;6252629;27;90032;-70
2023/04/18 04:44:49;;;;;;;7.93;5.25;;;22.60;75.20;;;;;;6256626;28;89151;-69
2023/04/18 04:47:51;;;;;;;7.95;5.55;;;22.60;75.10;;;;;;6253839;27;89142;-69
2023/04/18 04:50:54;;;;;;;7.78;5.65;;;22.60;75.00;;;;;;6251033;27;89063;-70
2023/04/18 04:53:56;;;;;;;6.47;5.68;;;22.70;75.00;;;;;;6246466;27;89103;-70
2023/04/18 04:56:58;;;;;;;8.18;5.70;;;22.70;75.00;;;;;;6241630;27;89438;-70
2023/04/18 05:00:04;;;;;;;7.53;5.57;;;22.70;75.00;;;;;;6253130;27;89091;-69
2023/04/18 05:03:07;;;;;;;6.32;5.40;;;22.70;75.00;;;;;;6248831;27;88441;-69
2023/04/18 05:06:09;;;;;;;6.57;5.55;;;22.70;74.90;;;;;;6248405;28;89356;-69
2023/04/18 05:09:11;;;;;;;8.30;5.68;;;22.70;74.90;;;;;;6256568;27;89093;-69
2023/04/18 05:12:13;;;;;;;6.25;5.30;;;22.70;74.90;;;;;;6255713;28;90012;-69
2023/04/18 05:15:18;;;;;;;5.72;5.03;;;22.70;74.80;;;;;;6251432;27;89115;-69
2023/04/18 05:18:20;;;;;;;5.75;5.20;;;22.70;74.80;;;;;;6251842;27;89302;-69
2023/04/18 05:21:23;;;;;;;7.88;5.28;;;22.80;74.90;;;;;;6255251;27;89112;-69
2023/04/18 05:24:25;;;;;;;5.55;5.05;;;22.70;74.70;;;;;;6252545;27;88173;-69
2023/04/18 05:27:27;;;;;;;7.30;5.25;;;22.70;74.80;;;;;;6247292;27;88910;-69
2023/04/18 05:30:31;;;;;;;6.05;5.40;;;22.80;74.80;;;;;;6264063;27;89383;-69
2023/04/18 05:33:33;;;;;;;5.65;5.10;;;22.80;74.80;;;;;;6252371;27;88345;-70
2023/04/18 05:36:35;;;;;;;5.88;5.28;;;22.80;74.80;;;;;;6253863;27;89417;-70
2023/04/18 05:39:37;;;;;;;6.28;5.18;;;22.80;74.90;;;;;;6248181;28;88295;-70
2023/04/18 05:42:39;;;;;;;5.85;5.20;;;22.80;75.10;;;;;;6248263;27;90164;-70
2023/04/18 05:45:43;;;;;;;5.50;4.97;;;22.80;75.10;;;;;;6256087;27;87793;-71
2023/04/18 05:48:45;;;;;;;7.15;5.30;;;22.80;75.30;;;;;;6250071;27;89417;-75
2023/04/18 05:51:48;;;;;;;6.78;5.50;;;22.80;75.40;;;;;;6252793;27;89081;-73
2023/04/18 05:54:50;;;;;;;5.95;5.35;;;22.80;75.90;;;;;;6255571;28;88983;-73
2023/04/18 05:57:52;;;;;;;5.70;5.20;;;22.80;75.70;;;;;;6243828;27;88808;-73
2023/04/18 06:00:56;;;;;;;7.18;5.55;;;22.80;75.50;;;;;;6256340;27;89207;-73
2023/04/18 06:03:58;;;;;;;5.90;5.30;;;22.90;75.60;;;;;;6243921;27;88296;-74
2023/04/18 06:07:00;;;;;;;6.38;5.15;;;22.90;75.80;;;;;;6247053;27;89125;-73
2023/04/18 06:10:02;;;;;;;5.88;4.90;;;22.90;75.70;;;;;;6241847;27;89109;-73
2023/04/18 06:13:04;;;;;;;5.65;5.03;;;22.90;75.70;;;;;;6241709;28;90058;-73
2023/04/18 06:16:08;;;;;;;5.82;5.22;;;22.90;75.80;;;;;;6249671;27;88982;-72
2023/04/18 06:19:10;;;;;;;5.47;4.90;;;22.90;76.70;;;;;;6253037;28;89180;-73
2023/04/18 06:22:12;;;;;;;6.85;4.93;;;22.90;75.70;;;;;;6254700;28;89421;-72
2023/04/18 06:25:15;;;;;;;6.07;5.47;;;22.90;75.70;;;;;;6253677;28;89163;-73
2023/04/18 06:28:17;;;;;;;6.20;5.30;;;22.90;75.70;;;;;;6252045;28;89036;-73
2023/04/18 06:31:20;;;;;;;5.32;4.82;;;22.90;75.70;;;;;;6252664;28;89071;-73
2023/04/18 06:34:22;;;;;;;5.63;5.13;;;22.90;75.70;;;;;;6246769;28;88273;-73
2023/04/18 06:37:24;;;;;;;5.63;5.07;;;22.90;75.70;;;;;;6241306;28;89545;-73
2023/04/18 06:40:26;;;;;;;5.80;5.20;;;22.90;75.60;;;;;;6251212;28;89012;-73
2023/04/18 06:43:28;;;;;;;6.13;5.05;;;22.90;75.60;;;;;;6234277;28;90001;-74
2023/04/18 06:46:32;;;;;;;5.65;5.03;;;23.00;75.60;;;;;;6245775;28;87954;-73
2023/04/18 06:49:34;;;;;;;5.80;5.03;;;23.00;75.50;;;;;;6243685;28;89152;-72
2023/04/18 06:52:39;;;;;;;4.80;4.40;;;23.00;75.50;;;;;;6259180;27;88997;-73
2023/04/18 06:55:41;;;;;;;5.22;4.72;;;23.00;75.50;;;;;;6253934;28;88936;-72
2023/04/18 06:58:43;;;;;;;5.40;4.90;;;23.00;75.50;;;;;;6250923;28;89035;-72
2023/04/18 07:01:46;;;;;;;5.47;4.97;;;23.00;75.50;;;;;;6262240;28;89115;-72
2023/04/18 07:04:49;;;;;;;5.20;4.70;;;23.00;76.40;;;;;;6253227;28;88587;-73
2023/04/18 07:07:51;;;;;;;5.43;4.93;;;23.00;75.40;;;;;;6255634;28;89191;-73
2023/04/18 07:10:53;;;;;;;5.65;5.03;;;23.00;75.40;;;;;;6262583;28;88006;-73
2023/04/18 07:13:55;;;;;;;4.85;4.45;;;23.00;75.50;;;;;;6258233;27;90023;-73
2023/04/18 07:16:59;;;;;;;5.55;4.82;;;23.00;75.40;;;;;;6247451;28;90626;-72
2023/04/18 07:20:02;;;;;;;5.72;4.97;;;23.00;75.40;;;;;;6252586;28;88861;-73
2023/04/18 07:23:05;;;;;;;5.13;4.70;;;23.00;75.40;;;;;;6262630;28;89047;-73
2023/04/18 07:26:08;;;;;;;5.45;4.90;;;23.00;75.40;;;;;;6262221;28;88149;-73
2023/04/18 07:29:10;;;;;;;6.10;4.68;;;23.00;75.50;;;;;;6252269;28;89063;-73
2023/04/18 07:32:13;;;;;;;5.20;4.70;;;23.00;75.50;;;;;;6262178;28;89386;-73
2023/04/18 07:35:16;;;;;;;5.20;4.75;;;23.00;75.50;;;;;;6261867;28;87432;-73
2023/04/18 07:38:18;;;;;;;5.47;4.80;;;23.00;75.50;;;;;;6261170;28;89160;-73
2023/04/18 07:41:20;;;;;;;4.78;4.38;;;23.10;75.50;;;;;;6257704;28;90204;-73
2023/04/18 07:44:24;;;;;;;4.95;4.55;;;23.00;75.40;;;;;;6256438;28;89735;-73
2023/04/18 07:47:28;;;;;;;4.82;4.43;;;23.00;75.40;;;;;;6259144;28;89072;-73
2023/04/18 07:50:30;;;;;;;4.90;4.50;;;23.00;75.40;;;;;;6256440;28;89355;-73
2023/04/18 07:53:32;;;;;;;4.63;4.10;;;23.00;75.40;;;;;;6261664;28;89110;-73
2023/04/18 07:56:34;;;;;;;5.03;4.63;;;23.00;75.40;;;;;;6253891;28;89165;-73
2023/04/18 07:59:36;;;;;;;5.13;4.63;;;23.10;75.50;;;;;;6255929;28;89035;-73
2023/04/18 08:02:40;;;;;;;5.20;4.22;;;23.10;75.50;;;;;;6258818;28;87998;-73
2023/04/18 08:05:43;;;;;;;5.20;4.40;;;23.10;75.50;;;;;;6245772;28;88371;-73
2023/04/18 08:08:45;;;;;;;4.72;4.22;;;23.00;75.40;;;;;;6255617;28;88898;-73
2023/04/18 08:11:47;;;;;;;4.60;4.20;;;23.10;75.50;;;;;;6256942;28;89547;-73
2023/04/18 08:14:49;;;;;;;4.80;4.40;;;23.10;75.40;;;;;;6249682;28;88941;-73
2023/04/18 08:17:52;;;;;;;4.47;4.07;;;23.10;75.50;;;;;;6251969;28;89084;-71
2023/04/18 08:20:54;;;;;;;5.07;4.57;;;23.10;75.50;;;;;;6256668;28;89330;-74
2023/04/18 08:23:56;;;;;;;4.60;4.20;;;23.10;75.50;;;;;;6253654;28;87953;-73
2023/04/18 08:26:58;;;;;;;5.00;4.60;;;23.10;75.50;;;;;;6251523;28;88791;-74
2023/04/18 08:30:02;;;;;;;4.72;4.32;;;23.10;75.50;;;;;;6256788;28;89084;-72
2023/04/18 08:33:06;;;;;;;5.30;4.10;;;23.10;75.50;;;;;;6250106;28;89552;-73
2023/04/18 08:36:10;;;;;;;4.50;4.10;;;23.10;75.40;;;;;;6256249;28;87938;-73
2023/04/18 08:39:12;;;;;;;5.72;4.57;;;23.10;75.40;;;;;;6244203;28;89174;-73
2023/04/18 08:42:18;;;;;;;4.45;4.05;;;23.10;75.40;;;;;;6248925;28;89053;-73
2023/04/18 08:45:20;;;;;;;4.65;4.25;;;23.10;75.40;;;;;;6252763;28;90273;-73
2023/04/18 08:48:23;;;;;;;4.70;4.30;;;23.10;75.40;;;;;;6251128;28;89210;-73
2023/04/18 08:51:29;;;;;;;4.60;4.20;;;23.10;75.40;;;;;;6242547;28;89108;-73
2023/04/18 08:54:31;;;;;;;4.70;4.30;;;23.10;75.40;;;;;;6255454;28;89112;-73
2023/04/18 08:57:35;;;;;;;4.45;4.05;;;23.10;75.40;;;;;;6244454;28;89097;-73
2023/04/18 09:00:37;;;;;;;4.28;3.97;;;23.10;75.40;;;;;;6255984;28;89009;-73
2023/04/18 09:03:42;;;;;;;4.38;3.97;;;23.10;75.40;;;;;;6255483;28;89046;-73
2023/04/18 09:06:52;;;;;;;4.40;4.00;;;23.10;75.40;;;;;;6251418;28;88387;-73
2023/04/18 09:09:56;;;;;;;4.50;4.10;;;23.10;75.40;;;;;;6253927;28;89103;-73
2023/04/18 09:13:01;;;;;;;4.57;4.18;;;23.10;75.40;;;;;;6253198;28;89108;-73
2023/04/18 09:16:05;;;;;;;4.47;4.07;;;23.10;75.40;;;;;;6243288;27;90120;-73
2023/04/18 09:19:13;;;;;;;4.28;3.88;;;23.10;75.40;;;;;;6246776;28;89147;-73
2023/04/18 09:22:16;;;;;;;4.38;3.97;;;23.10;75.40;;;;;;6256342;28;88924;-74
2023/04/18 09:25:26;;;;;;;4.13;3.63;;;23.10;75.40;;;;;;6254824;28;89073;-73
2023/04/18 09:28:29;;;;;;;3.85;3.55;;;23.10;75.40;;;;;;6254249;27;90064;-74
2023/04/18 09:31:31;;;;;;;4.40;4.00;;;23.10;75.40;;;;;;6255888;28;88760;-72
2023/04/18 09:34:37;;;;;;;4.15;3.78;;;23.20;75.50;;;;;;6252084;28;88043;-72
2023/04/18 09:37:49;;;;;;;4.10;3.70;;;23.10;75.40;;;;;;6252062;28;88830;-72
2023/04/18 09:41:07;;;;;;;4.20;3.80;;;23.20;75.40;;;;;;6254328;28;88372;-72
2023/04/18 09:44:11;;;;;;;4.00;3.67;;;23.10;75.40;;;;;;6248564;27;88141;-71
2023/04/18 09:47:13;;;;;;;4.10;3.80;;;23.10;75.30;;;;;;6239530;28;90035;-72
2023/04/18 09:50:17;;;;;;;3.95;3.63;;;23.20;75.40;;;;;;6254873;28;89425;-72
2023/04/18 09:53:20;;;;;;;4.10;3.80;;;23.10;75.40;;;;;;6251362;28;87950;-71
2023/04/18 09:56:25;;;;;;;5.28;3.72;;;23.20;75.40;;;;;;6249174;27;88906;-71
2023/04/18 09:59:41;;;;;;;4.28;3.88;;;23.20;75.90;;;;;;6256823;28;88179;-71
2023/04/18 10:02:48;;;;;;;116.20;107.10;;;23.10;76.00;;;;;;6254183;28;89076;-72
2023/04/18 10:05:52;;;;;;;521.13;478.17;;;23.20;78.70;;;;;;6243370;28;89410;-71
2023/04/18 10:08:55;;;;;;;709.25;649.25;;;23.40;79.00;;;;;;6242980;28;88091;-71
2023/04/18 10:11:57;;;;;;;1766.47;997.25;;;23.70;78.90;;;;;;6243835;28;89412;-72
2023/04/18 10:14:59;;;;;;;1593.55;963.80;;;23.90;80.00;;;;;;6243430;28;89039;-72
2023/04/18 10:18:03;;;;;;;831.70;689.33;;;24.10;78.60;;;;;;6239263;28;88870;-72
2023/04/18 10:21:08;;;;;;;644.00;562.15;;;24.30;75.90;;;;;;6254477;28;89253;-73
2023/04/18 10:24:45;;;;;;;567.42;497.02;;;24.50;74.80;;;;;;6252610;28;88849;-72
2023/04/18 10:28:01;;;;;;;522.50;448.35;;;24.60;73.90;;;;;;6242471;27;89060;-72
2023/04/18 10:31:04;;;;;;;484.65;416.73;;;24.70;73.50;;;;;;6253826;28;89018;-71
2023/04/18 10:34:07;;;;;;;481.15;400.45;;;24.70;73.40;;;;;;6253267;28;88029;-72
2023/04/18 10:37:12;;;;;;;457.67;378.77;;;24.70;73.30;;;;;;6246046;28;90655;-71
2023/04/18 10:40:14;;;;;;;427.98;360.40;;;24.50;73.30;;;;;;6244008;28;87178;-71
2023/04/18 10:43:16;;;;;;;396.65;344.92;;;24.50;73.30;;;;;;6249151;28;89333;-71
2023/04/18 10:46:18;;;;;;;392.33;328.90;;;24.40;73.50;;;;;;6252296;28;87865;-71
2023/04/18 10:49:22;;;;;;;373.85;316.00;;;24.30;73.50;;;;;;6248328;28;89990;-72
2023/04/18 10:52:27;;;;;;;345.85;302.95;;;24.20;73.70;;;;;;6248156;28;89170;-71
2023/04/18 10:55:30;;;;;;;341.63;291.88;;;24.10;73.80;;;;;;6248691;28;89392;-71
2023/04/18 10:58:33;;;;;;;323.55;281.20;;;24.00;73.80;;;;;;6252106;28;89119;-72
2023/04/18 11:01:37;;;;;;;321.42;274.98;;;23.90;73.90;;;;;;6245104;28;89133;-71
2023/04/18 11:04:40;;;;;;;309.70;265.25;;;23.90;74.10;;;;;;6249878;27;88990;-72
2023/04/18 11:07:46;;;;;;;288.73;251.50;;;23.90;74.20;;;;;;6250485;28;88993;-72
2023/04/18 11:10:57;;;;;;;286.98;246.38;;;23.80;74.20;;;;;;6247453;28;88352;-72
2023/04/18 11:13:59;;;;;;;278.13;237.18;;;23.80;74.30;;;;;;6248511;28;89218;-72
2023/04/18 11:17:16;;;;;;;266.75;230.82;;;23.80;74.40;;;;;;6245856;27;89193;-72
2023/04/18 11:20:18;;;;;;;266.00;223.88;;;23.70;74.40;;;;;;6246461;28;90094;-72
2023/04/18 11:23:23;;;;;;;258.25;219.52;;;23.70;74.40;;;;;;6247702;28;89639;-72
2023/04/18 11:26:27;;;;;;;246.93;210.95;;;23.70;74.40;;;;;;6249150;28;89139;-72
2023/04/18 11:29:29;;;;;;;236.38;202.43;;;23.70;74.40;;;;;;6249748;28;87502;-71
2023/04/18 11:32:34;;;;;;;230.68;197.85;;;23.70;74.40;;;;;;6248938;28;89293;-71
2023/04/18 11:35:40;;;;;;;223.05;188.27;;;23.70;74.50;;;;;;6246556;28;89182;-72
2023/04/18 11:38:43;;;;;;;219.38;183.80;;;23.70;75.40;;;;;;6252060;27;89104;-71
2023/04/18 11:41:49;;;;;;;213.23;179.73;;;23.70;74.50;;;;;;6257112;28;88744;-71
2023/04/18 11:44:51;;;;;;;206.23;171.55;;;23.70;74.50;;;;;;6244445;28;89381;-72
2023/04/18 11:47:56;;;;;;;203.57;164.57;;;23.70;74.50;;;;;;6256264;28;89041;-72
2023/04/18 11:50:58;;;;;;;194.88;163.18;;;23.70;74.50;;;;;;6254869;28;90037;-72
2023/04/18 11:54:02;;;;;;;194.77;158.57;;;23.70;74.50;;;;;;6254586;28;88789;-72
2023/04/18 11:57:05;;;;;;;186.63;151.30;;;23.70;74.50;;;;;;6244039;28;89986;-72
2023/04/18 12:00:11;;;;;;;174.40;147.32;;;23.70;74.50;;;;;;6253199;28;88701;-71
2023/04/18 12:03:16;;;;;;;175.85;143.23;;;23.70;74.50;;;;;;6255845;28;89162;-72
2023/04/18 12:06:18;;;;;;;172.65;142.82;;;23.70;74.50;;;;;;6255608;28;89130;-72
2023/04/18 12:09:24;;;;;;;167.15;137.07;;;23.70;74.50;;;;;;6256716;28;89132;-72
2023/04/18 12:12:27;;;;;;;159.43;132.75;;;23.60;74.50;;;;;;6253175;28;88465;-72
2023/04/18 12:15:30;;;;;;;154.32;130.25;;;23.70;74.60;;;;;;6245309;28;89512;-71
2023/04/18 12:18:32;;;;;;;155.65;127.97;;;23.60;74.50;;;;;;6254640;28;88710;-71
2023/04/18 12:21:35;;;;;;;150.95;125.22;;;23.70;74.50;;;;;;6248462;28;88952;-72
2023/04/18 12:24:38;;;;;;;149.48;125.28;;;23.70;74.50;;;;;;6255656;28;89249;-71
2023/04/18 12:27:59;;;;;;;143.18;121.05;;;23.60;74.50;;;;;;6247735;28;89506;-72
2023/04/18 12:31:02;;;;;;;139.45;117.10;;;23.60;74.60;;;;;;6256170;27;88261;-71
2023/04/18 12:34:04;;;;;;;132.82;113.70;;;23.60;74.60;;;;;;6255704;28;89074;-71
2023/04/18 12:37:06;;;;;;;129.48;110.30;;;23.60;74.70;;;;;;6252137;28;89556;-71
2023/04/18 12:40:12;;;;;;;125.03;107.40;;;23.60;74.70;;;;;;6247890;28;88932;-71
2023/04/18 12:43:14;;;;;;;127.35;107.07;;;23.60;74.80;;;;;;6255947;28;88162;-71
2023/04/18 12:46:16;;;;;;;122.15;103.55;;;23.50;74.80;;;;;;6250989;28;89019;-71
2023/04/18 12:49:18;;;;;;;122.63;102.13;;;23.60;74.90;;;;;;6243670;28;89049;-72
2023/04/18 12:52:20;;;;;;;115.75;99.10;;;23.60;74.90;;;;;;6244346;28;90092;-72
2023/04/18 12:55:24;;;;;;;111.68;95.18;;;23.50;75.00;;;;;;6250449;28;89880;-71
2023/04/18 12:58:26;;;;;;;112.88;93.25;;;23.50;75.00;;;;;;6255231;28;89096;-72
2023/04/18 13:01:28;;;;;;;105.40;90.20;;;23.50;75.00;;;;;;6254573;28;89209;-71
2023/04/18 13:04:30;;;;;;;100.40;87.80;;;23.50;75.00;;;;;;6256125;28;89119;-72
2023/04/18 13:07:32;;;;;;;102.05;85.65;;;23.40;75.00;;;;;;6254617;28;87991;-71
2023/04/18 13:10:35;;;;;;;94.18;83.50;;;23.50;75.00;;;;;;6251176;28;89145;-71
2023/04/18 13:13:38;;;;;;;95.10;81.63;;;23.50;75.00;;;;;;6255617;28;88478;-70
2023/04/18 13:16:40;;;;;;;89.18;76.45;;;23.50;75.00;;;;;;6246705;28;89096;-71
2023/04/18 13:19:42;;;;;;;88.32;75.25;;;23.50;75.90;;;;;;6255829;28;89306;-71
2023/04/18 13:22:44;;;;;;;85.38;72.25;;;23.40;75.00;;;;;;6251172;28;90002;-71
2023/04/18 13:25:48;;;;;;;85.20;70.72;;;23.40;75.00;;;;;;6245596;28;87973;-71
2023/04/18 13:28:50;;;;;;;75.97;66.82;;;23.40;75.00;;;;;;6251683;27;88914;-71
2023/04/18 13:31:52;;;;;;;79.55;65.25;;;23.50;75.90;;;;;;6244384;28;89221;-71
2023/04/18 13:34:55;;;;;;;74.95;63.47;;;23.50;75.00;;;;;;6254620;28;89058;-71
2023/04/18 13:37:57;;;;;;;75.20;62.95;;;23.50;74.90;;;;;;6242238;28;87987;-72
2023/04/18 13:41:00;;;;;;;75.05;59.80;;;23.50;74.90;;;;;;6246831;28;88993;-71
2023/04/18 13:44:02;;;;;;;69.30;58.35;;;23.50;74.90;;;;;;6256531;28;88391;-71
2023/04/18 13:47:05;;;;;;;67.47;57.05;;;23.50;74.90;;;;;;6255881;28;89146;-71
2023/04/18 13:50:11;;;;;;;66.57;55.75;;;23.60;75.00;;;;;;6253015;28;89169;-71
2023/04/18 13:53:15;;;;;;;61.78;53.45;;;23.50;74.90;;;;;;6252327;28;90182;-71
2023/04/18 13:56:18;;;;;;;61.78;52.67;;;23.50;74.80;;;;;;6252107;28;88971;-72
2023/04/18 13:59:20;;;;;;;59.47;51.60;;;23.50;74.80;;;;;;6253950;28;89198;-72
2023/04/18 14:02:22;;;;;;;57.40;49.03;;;23.50;74.80;;;;;;6252380;27;89105;-72
2023/04/18 14:05:24;;;;;;;55.75;47.58;;;23.50;74.90;;;;;;6254407;28;89051;-72
2023/04/18 14:08:26;;;;;;;51.92;46.28;;;23.50;74.90;;;;;;6254790;28;89255;-72
2023/04/18 14:11:30;;;;;;;51.00;45.38;;;23.50;74.90;;;;;;6243749;28;89170;-72
2023/04/18 14:14:32;;;;;;;50.40;43.72;;;23.50;74.90;;;;;;6252193;28;88335;-71
2023/04/18 14:17:34;;;;;;;50.88;43.65;;;23.50;74.90;;;;;;6247554;28;90546;-72
2023/04/18 14:20:36;;;;;;;46.72;41.03;;;23.50;74.90;;;;;;6253241;28;89039;-72
2023/04/18 14:23:38;;;;;;;45.22;40.20;;;23.50;74.90;;;;;;6254249;28;90197;-71
2023/04/18 14:26:42;;;;;;;47.95;39.67;;;23.50;74.90;;;;;;6244377;28;88008;-72
2023/04/18 14:29:45;;;;;;;42.90;38.25;;;23.50;74.90;;;;;;6254809;28;89084;-72
2023/04/18 14:32:47;;;;;;;42.92;37.92;;;23.50;74.90;;;;;;6242898;28;89126;-72
2023/04/18 14:35:49;;;;;;;40.95;35.30;;;23.50;74.90;;;;;;6249776;28;89420;-72
2023/04/18 14:38:51;;;;;;;39.72;34.90;;;23.50;74.90;;;;;;6239038;28;89159;-72
2023/04/18 14:41:54;;;;;;;37.90;33.85;;;23.50;74.90;;;;;;6253522;28;89429;-72
2023/04/18 14:44:56;;;;;;;37.45;32.72;;;23.50;75.00;;;;;;6254130;28;88608;-72
2023/04/18 14:47:58;;;;;;;37.17;32.55;;;23.50;75.00;;;;;;6244869;28;89096;-72
2023/04/18 14:51:01;;;;;;;38.28;31.90;;;23.50;74.90;;;;;;6248050;28;89182;-72
2023/04/18 14:54:03;;;;;;;33.90;29.67;;;23.50;74.90;;;;;;6251489;28;90369;-71
2023/04/18 14:57:07;;;;;;;34.55;29.17;;;23.50;74.90;;;;;;6242204;28;89605;-72
2023/04/18 15:00:10;;;;;;;31.30;27.88;;;23.50;74.90;;;;;;6254151;28;89149;-72
2023/04/18 15:03:13;;;;;;;30.10;26.88;;;23.50;74.80;;;;;;6250322;28;89066;-72
2023/04/18 15:06:14;;;;;;;29.40;25.75;;;23.50;74.80;;;;;;6251993;28;88992;-72
2023/04/18 15:09:16;;;;;;;28.33;25.33;;;23.50;74.70;;;;;;6252634;28;89181;-72
2023/04/18 15:12:20;;;;;;;27.55;24.27;;;23.50;74.70;;;;;;6253567;28;89236;-72
2023/04/18 15:15:24;;;;;;;26.48;23.42;;;23.50;74.70;;;;;;6236025;28;87215;-72
2023/04/18 15:18:25;;;;;;;25.23;22.42;;;23.50;74.70;;;;;;6257349;28;88791;-72
2023/04/18 15:21:28;;;;;;;25.73;21.88;;;23.50;74.60;;;;;;6259057;28;89602;-72
2023/04/18 15:24:30;;;;;;;23.40;20.90;;;23.50;74.50;;;;;;6256337;28;89059;-71
2023/04/18 15:27:33;;;;;;;24.02;20.63;;;23.50;74.50;;;;;;6254418;28;87779;-71
2023/04/18 15:30:35;;;;;;;22.42;19.48;;;23.50;74.50;;;;;;6253384;28;89147;-71
2023/04/18 15:33:37;;;;;;;22.65;19.35;;;23.50;74.50;;;;;;6257185;28;89103;-72
2023/04/18 15:36:40;;;;;;;21.52;18.65;;;23.50;74.50;;;;;;6254418;28;89094;-71
2023/04/18 15:39:42;;;;;;;18.48;16.45;;;23.50;74.50;;;;;;6248751;28;89390;-71